Time;durP1;ratioP1;P1;durP2;ratioP2;P2;SDS_P1;SDS_P2;PMS_P1;PMS_P2;Temp;Humidity;BMP_temperature;BMP_pressure;BME280_temperature;BME280_humidity;BME280_pressure;Samples;Min_cycle;Max_cycle;Signal;HPM_P1;HPM_P2
2022/05/05 00:01:42;;;;;;;7.20;4.10;;;9.90;37.20;;;;;;5035867;28;20557;-74
2022/05/05 00:04:09;;;;;;;6.40;4.27;;;9.90;14.80;;;;;;5053728;28;20599;-74
2022/05/05 00:06:34;;;;;;;6.63;3.67;;;9.90;71.30;;;;;;5052785;28;20601;-74
2022/05/05 00:09:00;;;;;;;6.37;4.03;;;9.90;99.90;;;;;;5035665;28;20234;-74
2022/05/05 00:14:23;;;;;;;8.07;4.03;;;9.90;97.20;;;;;;5053745;28;20166;-74
2022/05/05 00:17:18;;;;;;;5.77;4.00;;;9.90;94.70;;;;;;5035694;28;20253;-76
2022/05/05 00:19:44;;;;;;;7.67;4.20;;;9.90;95.60;;;;;;5032244;28;20192;-74
2022/05/05 00:22:10;;;;;;;6.87;4.40;;;9.90;99.90;;;;;;5054090;28;20175;-76
2022/05/05 00:24:38;;;;;;;6.70;4.33;;;9.90;99.90;;;;;;5053520;28;20172;-76
2022/05/05 00:27:04;;;;;;;8.43;4.83;;;9.90;99.90;;;;;;5053468;28;20249;-76
2022/05/05 00:29:30;;;;;;;6.50;4.50;;;9.90;99.90;;;;;;5035597;28;20618;-75
2022/05/05 00:31:55;;;;;;;7.63;4.57;;;9.90;99.90;;;;;;5053637;28;20167;-76
2022/05/05 00:34:21;;;;;;;7.40;4.33;;;9.90;99.90;;;;;;5035437;28;20222;-76
2022/05/05 00:36:46;;;;;;;6.00;3.80;;;10.00;99.90;;;;;;5053219;28;20198;-76
2022/05/05 00:39:12;;;;;;;7.20;4.03;;;10.00;99.90;;;;;;5035463;28;20179;-76
2022/05/05 00:41:43;;;;;;;6.33;4.40;;;10.00;99.90;;;;;;5053368;28;20178;-76
2022/05/05 00:44:09;;;;;;;12.10;4.73;;;10.00;99.90;;;;;;5053563;28;20160;-76
2022/05/05 00:46:36;;;;;;;7.37;4.20;;;10.00;99.90;;;;;;5035369;28;20240;-76
2022/05/05 00:49:03;;;;;;;5.80;4.43;;;10.00;99.90;;;;;;5035239;28;20279;-76
2022/05/05 00:51:28;;;;;;;7.97;5.13;;;10.00;99.90;;;;;;5053128;28;20187;-76
2022/05/05 00:53:54;;;;;;;6.97;4.33;;;10.00;99.90;;;;;;5035326;28;20176;-76
2022/05/05 00:56:21;;;;;;;6.90;4.43;;;10.00;99.90;;;;;;5052981;28;20187;-76
2022/05/05 00:58:48;;;;;;;10.03;4.43;;;10.00;99.90;;;;;;5053026;28;20167;-74
2022/05/05 01:01:18;;;;;;;14.77;4.40;;;10.00;99.90;;;;;;5053109;28;20274;-74
2022/05/05 01:03:45;;;;;;;9.50;4.67;;;10.00;99.90;;;;;;5052913;28;20175;-74
2022/05/05 01:06:11;;;;;;;6.53;4.03;;;10.00;99.90;;;;;;5034951;28;20248;-74
2022/05/05 01:08:37;;;;;;;9.37;4.80;;;10.00;99.90;;;;;;5053208;28;20172;-74
2022/05/05 01:11:03;;;;;;;6.03;3.97;;;10.00;99.90;;;;;;5056510;28;20193;-75
2022/05/05 01:13:30;;;;;;;10.33;4.33;;;10.10;99.90;;;;;;5057008;28;20183;-74
2022/05/05 01:15:56;;;;;;;6.17;4.20;;;10.10;99.90;;;;;;5057010;28;20187;-74
2022/05/05 01:18:22;;;;;;;6.30;4.30;;;10.10;99.90;;;;;;5039122;28;20179;-74
2022/05/05 01:20:51;;;;;;;6.53;3.87;;;10.10;99.90;;;;;;5038907;28;20233;-74
2022/05/05 01:23:16;;;;;;;6.03;4.07;;;10.10;99.90;;;;;;5056834;28;20699;-74
2022/05/05 01:28:28;;;;;;;7.43;4.13;;;10.10;99.90;;;;;;5056941;28;20222;-74
2022/05/05 01:30:53;;;;;;;8.07;4.30;;;10.10;99.90;;;;;;5056672;28;20164;-74
2022/05/05 01:33:21;;;;;;;9.47;4.60;;;10.10;99.90;;;;;;5038668;28;20164;-74
2022/05/05 01:35:52;;;;;;;15.00;4.50;;;10.20;99.90;;;;;;5056522;28;20226;-74
2022/05/05 01:38:20;;;;;;;9.70;5.50;;;10.20;99.90;;;;;;5038793;28;20167;-74
2022/05/05 01:40:46;;;;;;;7.67;4.37;;;10.20;99.90;;;;;;5038626;28;20179;-74
2022/05/05 01:43:16;;;;;;;7.03;4.33;;;10.20;99.90;;;;;;5038520;28;20182;-74
2022/05/05 01:45:42;;;;;;;7.20;4.93;;;10.20;99.90;;;;;;5056090;28;20211;-74
2022/05/05 01:48:08;;;;;;;10.17;4.70;;;10.20;99.90;;;;;;5056273;28;20175;-74
2022/05/05 01:50:34;;;;;;;9.53;5.07;;;10.20;99.90;;;;;;5038281;28;20191;-74
2022/05/05 01:53:01;;;;;;;10.20;5.00;;;10.10;99.90;;;;;;5038336;28;20712;-75
2022/05/05 01:55:27;;;;;;;6.83;4.43;;;10.10;99.90;;;;;;5056253;28;20191;-74
2022/05/05 01:57:54;;;;;;;10.00;4.90;;;10.20;99.90;;;;;;5056195;28;20607;-75
2022/05/05 02:00:20;;;;;;;7.77;4.90;;;10.20;99.90;;;;;;5056079;28;20183;-74
2022/05/05 02:02:46;;;;;;;7.23;4.03;;;10.20;99.90;;;;;;5056463;28;20175;-74
2022/05/05 02:05:13;;;;;;;9.83;4.97;;;10.20;99.90;;;;;;5055987;28;20196;-74
2022/05/05 02:07:39;;;;;;;4.67;4.10;;;10.10;99.90;;;;;;5056102;28;20183;-75
2022/05/05 02:10:07;;;;;;;6.33;4.30;;;10.10;99.90;;;;;;5056010;28;20196;-74
2022/05/05 02:12:35;;;;;;;8.70;3.87;;;10.10;99.90;;;;;;5056009;28;20216;-74
2022/05/05 02:15:08;;;;;;;10.70;5.10;;;10.10;99.90;;;;;;5038349;28;20199;-74
2022/05/05 02:17:37;;;;;;;9.23;4.60;;;10.10;99.90;;;;;;5056000;28;20156;-75
2022/05/05 02:20:05;;;;;;;6.70;4.23;;;10.10;99.90;;;;;;5037912;28;20186;-74
2022/05/05 02:22:31;;;;;;;8.00;4.33;;;10.10;99.90;;;;;;5036784;28;20667;-74
2022/05/05 02:24:56;;;;;;;13.03;5.03;;;10.00;99.90;;;;;;5037865;28;20262;-75
2022/05/05 02:27:22;;;;;;;10.03;4.77;;;10.00;99.90;;;;;;5037980;28;20245;-75
2022/05/05 02:29:48;;;;;;;9.70;4.33;;;10.00;99.90;;;;;;5037759;28;20291;-75
2022/05/05 02:32:14;;;;;;;11.70;4.23;;;10.00;99.90;;;;;;5055878;28;20630;-75
2022/05/05 02:34:40;;;;;;;9.17;3.83;;;10.00;99.90;;;;;;5055879;28;20221;-76
2022/05/05 02:39:50;;;;;;;7.03;4.17;;;10.00;99.90;;;;;;5055509;28;20191;-74
2022/05/05 02:42:17;;;;;;;6.53;3.90;;;10.20;99.90;;;;;;5055485;28;20612;-74
2022/05/05 02:44:43;;;;;;;6.63;4.10;;;10.00;99.90;;;;;;5055080;28;20175;-74
2022/05/05 02:47:08;;;;;;;6.80;4.10;;;10.00;99.90;;;;;;5038208;28;20219;-74
2022/05/05 02:49:34;;;;;;;8.83;5.10;;;10.10;99.90;;;;;;5055192;28;20230;-74
2022/05/05 02:52:00;;;;;;;5.80;4.33;;;10.00;99.90;;;;;;5056397;28;20629;-74
2022/05/05 02:57:09;;;;;;;8.70;4.30;;;10.00;99.90;;;;;;5055294;28;20184;-74
2022/05/05 02:59:34;;;;;;;8.47;4.60;;;9.90;99.90;;;;;;5054915;28;20650;-75
2022/05/05 03:02:00;;;;;;;9.23;4.17;;;9.90;99.90;;;;;;5054953;28;20649;-74
2022/05/05 03:04:26;;;;;;;6.30;4.40;;;9.80;99.90;;;;;;5055125;28;20183;-74
2022/05/05 03:06:51;;;;;;;8.27;4.27;;;9.80;99.90;;;;;;5036936;28;20196;-74
2022/05/05 03:09:18;;;;;;;7.53;4.50;;;9.70;99.90;;;;;;5054828;28;20196;-74
2022/05/05 03:11:44;;;;;;;7.73;4.70;;;9.70;99.90;;;;;;5054889;28;20192;-74
2022/05/05 03:14:09;;;;;;;5.97;4.30;;;9.60;99.90;;;;;;5054907;28;20806;-74
2022/05/05 03:16:35;;;;;;;8.73;5.13;;;9.60;99.90;;;;;;5036769;28;20192;-74
2022/05/05 03:19:00;;;;;;;7.43;4.37;;;9.50;99.90;;;;;;5036898;28;20274;-75
2022/05/05 03:21:26;;;;;;;7.83;4.63;;;9.40;99.90;;;;;;5054813;28;20183;-75
2022/05/05 03:23:51;;;;;;;8.53;4.40;;;9.40;99.90;;;;;;5036821;28;20172;-74
2022/05/05 03:26:17;;;;;;;6.70;4.77;;;9.30;99.90;;;;;;5036597;28;20191;-74
2022/05/05 03:28:43;;;;;;;6.07;4.27;;;9.20;99.90;;;;;;5054477;28;20171;-74
2022/05/05 03:31:08;;;;;;;7.27;4.07;;;9.20;99.90;;;;;;5054584;28;20163;-76
2022/05/05 03:33:34;;;;;;;9.57;4.80;;;9.10;99.90;;;;;;5054225;28;20221;-74
2022/05/05 03:36:00;;;;;;;7.53;4.93;;;9.10;99.90;;;;;;5036515;28;20230;-74
2022/05/05 03:38:26;;;;;;;6.03;4.17;;;9.10;99.90;;;;;;5036524;28;20721;-74
2022/05/05 03:40:52;;;;;;;8.03;4.80;;;9.00;99.90;;;;;;5036417;28;20183;-76
2022/05/05 03:43:18;;;;;;;5.77;4.30;;;9.00;99.90;;;;;;5036444;28;20545;-74
2022/05/05 03:45:43;;;;;;;9.20;4.43;;;9.00;99.90;;;;;;5054214;28;20276;-74
2022/05/05 03:48:09;;;;;;;8.67;4.60;;;9.00;99.90;;;;;;5054012;28;20688;-74
2022/05/05 03:50:35;;;;;;;6.67;4.37;;;8.90;99.90;;;;;;5036169;28;20283;-75
2022/05/05 03:53:01;;;;;;;9.80;4.50;;;8.90;99.90;;;;;;5054103;28;20258;-76
2022/05/05 03:55:28;;;;;;;9.07;4.37;;;8.90;99.90;;;;;;5036117;28;20791;-75
2022/05/05 03:57:53;;;;;;;7.20;4.50;;;8.80;99.90;;;;;;5036142;28;20195;-75
2022/05/05 04:00:20;;;;;;;7.93;4.80;;;8.80;99.90;;;;;;5035891;28;20203;-75
2022/05/05 04:03:30;;;;;;;7.73;4.40;;;8.80;99.90;;;;;;5036034;28;20230;-75
2022/05/05 04:05:35;;;;;;;8.57;4.63;;;8.80;99.90;;;;;;5053800;28;20294;-75
2022/05/05 04:08:02;;;;;;;7.37;4.67;;;8.80;99.90;;;;;;5035210;28;20274;-75
2022/05/05 04:10:27;;;;;;;5.03;3.87;;;8.70;99.90;;;;;;5035630;28;20632;-75
2022/05/05 04:12:55;;;;;;;6.43;4.30;;;8.70;99.90;;;;;;5053503;28;20168;-74
2022/05/05 04:15:20;;;;;;;7.17;4.67;;;8.70;99.90;;;;;;5053416;28;20187;-75
2022/05/05 04:17:46;;;;;;;8.07;4.37;;;8.70;99.90;;;;;;5053942;28;20226;-76
2022/05/05 04:20:12;;;;;;;7.57;4.10;;;8.60;99.90;;;;;;5053725;28;20209;-76
2022/05/05 04:22:38;;;;;;;7.23;4.80;;;8.60;99.90;;;;;;5053470;28;20225;-75
2022/05/05 04:25:04;;;;;;;7.03;4.63;;;8.50;99.90;;;;;;5035616;28;20191;-75
2022/05/05 04:27:29;;;;;;;8.10;4.37;;;8.50;99.90;;;;;;5053348;28;20764;-75
2022/05/05 04:29:55;;;;;;;6.30;4.73;;;8.50;99.90;;;;;;5035834;28;20286;-75
2022/05/05 04:32:20;;;;;;;8.27;4.30;;;8.50;99.90;;;;;;5055214;28;20178;-76
2022/05/05 04:34:47;;;;;;;6.40;3.93;;;8.50;99.90;;;;;;5054525;28;20179;-77
2022/05/05 04:37:13;;;;;;;10.43;5.00;;;8.60;99.90;;;;;;5036329;28;20187;-77
2022/05/05 04:39:39;;;;;;;7.03;4.50;;;8.60;99.90;;;;;;5054336;28;20263;-77
2022/05/05 04:42:05;;;;;;;5.30;3.67;;;8.60;99.90;;;;;;5054017;28;20577;-76
2022/05/05 04:44:31;;;;;;;7.83;4.80;;;8.60;99.90;;;;;;5035643;28;20242;-75
2022/05/05 04:46:57;;;;;;;7.63;4.83;;;8.60;99.90;;;;;;5053526;28;20583;-76
2022/05/05 04:49:22;;;;;;;8.30;4.97;;;8.60;99.90;;;;;;5053176;28;20203;-77
2022/05/05 04:51:48;;;;;;;7.03;4.43;;;8.60;99.90;;;;;;5053436;28;20194;-76
2022/05/05 04:54:13;;;;;;;7.20;4.37;;;8.60;99.90;;;;;;5035273;28;20186;-76
2022/05/05 04:56:39;;;;;;;11.57;4.60;;;8.50;99.90;;;;;;5035258;28;20575;-77
2022/05/05 04:59:04;;;;;;;8.13;5.03;;;8.60;99.90;;;;;;5053197;28;20262;-77
2022/05/05 05:01:30;;;;;;;6.97;4.50;;;8.50;99.90;;;;;;5053215;28;20293;-76
2022/05/05 05:03:55;;;;;;;7.77;4.60;;;8.60;99.90;;;;;;5053037;28;20637;-76
2022/05/05 05:06:21;;;;;;;7.73;4.77;;;8.60;99.90;;;;;;5052962;28;20199;-76
2022/05/05 05:08:47;;;;;;;7.67;4.47;;;8.50;99.90;;;;;;5053068;28;20179;-76
2022/05/05 05:11:13;;;;;;;9.20;5.07;;;8.60;99.90;;;;;;5052807;28;20168;-75
2022/05/05 05:13:38;;;;;;;7.63;5.37;;;8.50;99.90;;;;;;5053169;28;20183;-75
2022/05/05 05:16:04;;;;;;;8.50;5.43;;;8.60;99.90;;;;;;5052794;28;20692;-75
2022/05/05 05:18:30;;;;;;;8.50;4.80;;;8.50;99.90;;;;;;5052867;28;20175;-76
2022/05/05 05:20:56;;;;;;;6.73;4.73;;;8.60;99.90;;;;;;5052888;28;20259;-76
2022/05/05 05:23:22;;;;;;;9.53;4.83;;;8.60;99.90;;;;;;5035144;28;20649;-76
2022/05/05 05:25:48;;;;;;;9.90;5.13;;;8.60;99.90;;;;;;5035077;28;20196;-75
2022/05/05 05:28:14;;;;;;;8.23;5.00;;;8.70;99.90;;;;;;5052992;28;20182;-76
2022/05/05 05:30:40;;;;;;;13.37;5.00;;;8.70;99.90;;;;;;5034835;28;20249;-75
2022/05/05 05:33:06;;;;;;;7.43;4.60;;;8.70;99.90;;;;;;5035178;28;20182;-75
2022/05/05 05:35:33;;;;;;;6.63;4.63;;;8.80;99.90;;;;;;5034981;28;20222;-75
2022/05/05 05:37:58;;;;;;;5.83;4.47;;;8.80;99.90;;;;;;5052917;28;20262;-75
2022/05/05 05:40:24;;;;;;;9.30;5.10;;;8.90;99.90;;;;;;5035130;28;20210;-75
2022/05/05 05:42:49;;;;;;;6.77;5.00;;;9.00;99.90;;;;;;5052622;28;20176;-75
2022/05/05 05:45:15;;;;;;;6.47;5.03;;;9.00;99.90;;;;;;5052533;28;20216;-76
2022/05/05 05:47:40;;;;;;;6.03;4.53;;;9.10;99.90;;;;;;5052904;28;20172;-75
2022/05/05 05:50:06;;;;;;;10.87;5.33;;;9.20;99.90;;;;;;5052517;28;20598;-74
2022/05/05 05:52:33;;;;;;;7.70;5.50;;;9.20;99.90;;;;;;5052582;28;20191;-74
2022/05/05 05:54:58;;;;;;;8.17;5.33;;;9.30;99.90;;;;;;5053101;28;20167;-73
2022/05/05 05:57:24;;;;;;;10.93;5.33;;;9.40;99.90;;;;;;5056385;28;20167;-75
2022/05/05 05:59:50;;;;;;;8.73;4.83;;;9.40;99.90;;;;;;5056595;28;20182;-74
2022/05/05 06:04:59;;;;;;;8.30;4.77;;;9.60;99.90;;;;;;5056405;28;20166;-74
2022/05/05 06:07:25;;;;;;;7.60;5.03;;;9.60;99.90;;;;;;5055471;28;20543;-77
2022/05/05 06:09:50;;;;;;;9.90;4.60;;;9.70;99.90;;;;;;5055451;28;20207;-74
2022/05/05 06:12:16;;;;;;;8.73;5.70;;;9.70;99.90;;;;;;5055724;28;20206;-74
2022/05/05 06:14:41;;;;;;;7.37;6.00;;;9.70;99.90;;;;;;5055994;28;20186;-74
2022/05/05 06:17:07;;;;;;;9.33;5.13;;;9.80;99.90;;;;;;5037821;28;20194;-74
2022/05/05 06:19:33;;;;;;;7.80;5.17;;;9.90;99.90;;;;;;5037880;28;20187;-74
2022/05/05 06:21:59;;;;;;;9.90;5.30;;;10.00;99.90;;;;;;5055670;28;20171;-74
2022/05/05 06:24:24;;;;;;;9.77;5.70;;;10.00;99.90;;;;;;5037770;28;20530;-74
2022/05/05 06:26:50;;;;;;;7.17;5.47;;;10.00;99.90;;;;;;5055390;28;20199;-74
2022/05/05 06:29:15;;;;;;;8.70;5.27;;;10.10;99.90;;;;;;5055409;28;20265;-74
2022/05/05 06:31:41;;;;;;;8.63;5.00;;;10.20;99.90;;;;;;5055522;28;20250;-74
2022/05/05 06:34:06;;;;;;;7.90;5.47;;;10.30;99.90;;;;;;5055549;28;20192;-74
2022/05/05 06:36:32;;;;;;;9.63;5.80;;;10.30;99.90;;;;;;5055725;28;20183;-73
2022/05/05 06:38:57;;;;;;;11.90;6.80;;;10.40;99.90;;;;;;5053966;28;20210;-74
2022/05/05 06:41:23;;;;;;;12.90;7.30;;;10.50;99.90;;;;;;5066426;28;20171;-74
2022/05/05 06:43:49;;;;;;;13.63;6.87;;;10.60;99.90;;;;;;5057553;28;20198;-75
2022/05/05 06:46:14;;;;;;;13.83;6.70;;;10.60;99.90;;;;;;5055220;28;20708;-75
2022/05/05 06:48:41;;;;;;;10.67;6.13;;;10.80;99.90;;;;;;5055225;28;20184;-76
2022/05/05 06:51:06;;;;;;;11.57;6.90;;;10.80;99.90;;;;;;5055356;28;20175;-75
2022/05/05 06:53:32;;;;;;;12.83;7.50;;;10.90;99.90;;;;;;5055485;28;20172;-76
2022/05/05 06:55:58;;;;;;;10.77;7.00;;;11.00;99.90;;;;;;5037129;28;20200;-75
2022/05/05 06:58:25;;;;;;;11.20;6.70;;;11.00;99.90;;;;;;5037239;28;20179;-76
2022/05/05 07:03:34;;;;;;;15.03;7.20;;;11.20;99.90;;;;;;5055555;28;20256;-76
2022/05/05 07:06:01;;;;;;;9.50;6.53;;;11.20;99.90;;;;;;5054941;28;20206;-75
2022/05/05 07:08:27;;;;;;;10.60;6.30;;;11.30;99.90;;;;;;5054384;28;20225;-75
2022/05/05 07:10:53;;;;;;;11.40;5.77;;;11.40;99.90;;;;;;5054817;28;20218;-76
2022/05/05 07:13:20;;;;;;;12.23;6.17;;;11.50;99.90;;;;;;5037013;28;20554;-75
2022/05/05 07:15:46;;;;;;;11.30;6.17;;;11.60;99.90;;;;;;5036829;28;20200;-75
2022/05/05 07:18:11;;;;;;;9.47;6.03;;;11.70;11.30;;;;;;5054824;28;20277;-76
2022/05/05 07:20:37;;;;;;;10.83;6.20;;;11.70;1.00;;;;;;5054676;28;20262;-76
2022/05/05 07:23:05;;;;;;;13.43;6.57;;;11.80;1.00;;;;;;5037765;28;20199;-76
2022/05/05 07:25:30;;;;;;;13.07;5.43;;;11.90;1.00;;;;;;5054751;28;20206;-75
2022/05/05 07:27:56;;;;;;;15.90;5.93;;;12.00;1.00;;;;;;5054564;28;20176;-75
2022/05/05 07:30:22;;;;;;;8.60;5.90;;;12.10;99.90;;;;;;5036422;28;20204;-76
2022/05/05 07:32:48;;;;;;;11.23;6.03;;;12.20;99.90;;;;;;5036430;28;20176;-75
2022/05/05 07:35:13;;;;;;;12.87;6.40;;;12.20;6.10;;;;;;5054173;28;20249;-76
2022/05/05 07:37:39;;;;;;;12.60;6.53;;;12.30;99.90;;;;;;5054176;28;20171;-76
2022/05/05 07:40:06;;;;;;;12.87;6.70;;;12.50;1.00;;;;;;5036246;28;20198;-75
2022/05/05 07:42:32;;;;;;;16.60;7.03;;;12.50;99.90;;;;;;5036073;28;20180;-75
2022/05/05 07:44:57;;;;;;;11.30;6.37;;;12.70;99.90;;;;;;5036046;28;20171;-75
2022/05/05 07:47:23;;;;;;;12.97;5.80;;;12.80;1.00;;;;;;5054191;28;20601;-76
2022/05/05 07:49:49;;;;;;;14.83;6.77;;;12.80;99.90;;;;;;5054166;28;20337;-75
2022/05/05 07:52:14;;;;;;;12.83;5.73;;;12.90;99.90;;;;;;5054027;28;20176;-75
2022/05/05 07:54:43;;;;;;;13.37;5.93;;;13.00;99.90;;;;;;5054198;28;20182;-75
2022/05/05 07:57:12;;;;;;;12.33;5.63;;;13.10;1.00;;;;;;5053848;28;20253;-76
2022/05/05 07:59:38;;;;;;;9.20;5.33;;;13.10;99.90;;;;;;5053854;28;20199;-76
2022/05/05 08:02:08;;;;;;;12.87;5.47;;;13.20;99.90;;;;;;5053973;28;20168;-76
2022/05/05 08:04:33;;;;;;;13.00;5.87;;;13.20;99.90;;;;;;5053803;28;20176;-75
2022/05/05 08:06:59;;;;;;;10.80;5.13;;;13.30;99.90;;;;;;5035895;28;20203;-76
2022/05/05 08:09:25;;;;;;;14.10;4.90;;;13.30;1.00;;;;;;5035906;28;20200;-76
2022/05/05 08:11:50;;;;;;;13.23;5.60;;;13.40;1.00;;;;;;5035878;28;20229;-76
2022/05/05 08:14:16;;;;;;;9.40;5.27;;;13.40;99.90;;;;;;5054051;28;20167;-76
2022/05/05 08:16:42;;;;;;;15.10;5.40;;;13.50;99.90;;;;;;5053669;28;20187;-76
2022/05/05 08:19:07;;;;;;;9.00;5.03;;;13.70;99.90;;;;;;5034984;28;20184;-76
2022/05/05 08:21:33;;;;;;;6.37;4.67;;;13.70;1.00;;;;;;5035609;28;20186;-76
2022/05/05 08:29:27;;;;;;;8.83;3.93;;;13.80;1.00;;;;;;5053593;28;20265;-76
2022/05/05 08:31:53;;;;;;;10.80;4.33;;;13.80;1.00;;;;;;5053268;28;20641;-76
2022/05/05 08:34:19;;;;;;;10.93;4.40;;;13.90;1.00;;;;;;5053461;28;20534;-76
2022/05/05 08:36:45;;;;;;;13.13;4.33;;;13.90;99.90;;;;;;5035317;28;20230;-76
2022/05/05 08:39:11;;;;;;;15.80;4.27;;;14.00;99.90;;;;;;5053105;28;20178;-76
2022/05/05 08:41:39;;;;;;;11.63;4.53;;;14.00;99.90;;;;;;5035283;28;20314;-76
2022/05/05 08:44:04;;;;;;;12.07;5.60;;;14.10;1.00;;;;;;5035211;28;20178;-76
2022/05/05 08:46:33;;;;;;;15.13;6.13;;;14.10;99.90;;;;;;5052880;28;20215;-75
2022/05/05 08:49:03;;;;;;;14.90;6.37;;;14.10;34.60;;;;;;5052996;28;20171;-76
2022/05/05 08:51:35;;;;;;;13.83;6.00;;;14.20;99.90;;;;;;5053166;28;20164;-76
2022/05/05 08:54:05;;;;;;;15.13;7.87;;;14.30;1.00;;;;;;5053649;28;20524;-76
2022/05/05 08:56:31;;;;;;;17.77;8.83;;;14.40;99.90;;;;;;5034972;28;20202;-76
2022/05/05 08:58:56;;;;;;;16.03;9.20;;;14.50;99.90;;;;;;5053397;28;20168;-76
2022/05/05 09:01:22;;;;;;;16.07;9.23;;;14.50;99.90;;;;;;5054227;28;20179;-76
2022/05/05 09:03:48;;;;;;;22.40;9.63;;;14.60;99.90;;;;;;5034972;28;20176;-76
2022/05/05 09:06:13;;;;;;;20.13;9.60;;;14.70;36.80;;;;;;5052743;28;20199;-75
2022/05/05 09:08:39;;;;;;;20.80;10.57;;;14.70;1.00;;;;;;5052820;28;20199;-76
2022/05/05 09:11:06;;;;;;;14.00;9.27;;;14.90;99.90;;;;;;5052731;28;20195;-76
2022/05/05 09:13:34;;;;;;;21.43;11.13;;;14.90;1.00;;;;;;5034923;28;20649;-76
2022/05/05 09:16:02;;;;;;;16.87;8.97;;;15.00;1.00;;;;;;5052722;28;20187;-76
2022/05/05 09:18:30;;;;;;;16.20;8.90;;;15.00;99.90;;;;;;5052727;28;20267;-76
2022/05/05 09:20:57;;;;;;;17.07;8.60;;;15.20;99.90;;;;;;5052807;28;20217;-76
2022/05/05 09:26:26;;;;;;;16.33;8.73;;;15.40;1.00;;;;;;5052997;28;20742;-76
2022/05/05 09:28:52;;;;;;;15.27;7.77;;;15.50;99.90;;;;;;5052860;28;20579;-77
2022/05/05 09:31:18;;;;;;;13.57;7.13;;;15.60;99.90;;;;;;5054385;28;20221;-77
2022/05/05 09:33:44;;;;;;;16.30;6.87;;;15.70;99.90;;;;;;5056909;28;20570;-75
2022/05/05 09:36:15;;;;;;;12.63;7.10;;;15.80;99.90;;;;;;5056736;28;20179;-76
2022/05/05 09:38:53;;;;;;;13.80;6.00;;;15.80;99.90;;;;;;5056787;28;20198;-76
2022/05/05 09:41:43;;;;;;;12.13;5.97;;;16.00;99.90;;;;;;5038797;28;20172;-76
2022/05/05 09:44:17;;;;;;;18.57;7.13;;;16.00;1.00;;;;;;5041780;28;20249;-76
2022/05/05 09:46:46;;;;;;;15.00;7.77;;;16.20;99.90;;;;;;5038426;28;20301;-76
2022/05/05 09:49:16;;;;;;;13.77;7.13;;;16.20;99.90;;;;;;5056277;28;20195;-76
2022/05/05 09:57:39;;;;;;;20.83;8.13;;;16.30;75.40;;;;;;5056319;28;20199;-76
2022/05/05 09:57:40;;;;;;;18.13;8.37;;;16.40;99.90;;;;;;5056443;28;20175;-76
2022/05/05 10:05:46;;;;;;;15.53;7.50;;;16.50;99.90;;;;;;5056460;28;20572;-76
2022/05/05 10:08:15;;;;;;;14.73;7.07;;;16.60;99.90;;;;;;5055880;28;20673;-76
2022/05/05 10:10:42;;;;;;;16.00;8.87;;;16.60;99.90;;;;;;5056059;28;20191;-76
2022/05/05 10:13:09;;;;;;;20.13;9.20;;;16.70;1.00;;;;;;5055901;28;20769;-76
2022/05/05 10:15:35;;;;;;;13.70;8.30;;;16.70;1.00;;;;;;5055737;28;20191;-75
2022/05/05 10:18:04;;;;;;;14.83;8.33;;;16.80;1.00;;;;;;5038353;28;20248;-76
2022/05/05 10:20:32;;;;;;;17.17;8.60;;;16.80;1.00;;;;;;5055649;28;20538;-76
2022/05/05 10:23:14;;;;;;;18.37;9.03;;;16.90;1.00;;;;;;5055657;28;20179;-76
2022/05/05 10:25:40;;;;;;;15.73;8.50;;;17.00;1.00;;;;;;5055605;28;20199;-77
2022/05/05 10:28:40;;;;;;;21.27;8.90;;;17.00;12.50;;;;;;5055680;28;20180;-76
2022/05/05 10:31:31;;;;;;;16.87;8.73;;;16.90;1.00;;;;;;5037687;28;20279;-75
2022/05/05 10:34:01;;;;;;;17.73;9.73;;;17.00;1.00;;;;;;5055669;28;20156;-76
2022/05/05 10:36:30;;;;;;;16.67;10.40;;;16.90;99.90;;;;;;5055467;28;20229;-76
2022/05/05 10:38:56;;;;;;;20.67;8.70;;;16.80;99.90;;;;;;5037592;28;20176;-76
2022/05/05 10:41:31;;;;;;;17.00;9.43;;;16.90;1.00;;;;;;5055381;28;20225;-76
2022/05/05 10:44:16;;;;;;;16.97;9.77;;;17.00;1.00;;;;;;5037125;28;20171;-76
2022/05/05 10:46:57;;;;;;;15.00;9.27;;;17.00;99.90;;;;;;5054980;28;20618;-76
2022/05/05 10:49:36;;;;;;;17.70;8.70;;;17.10;1.00;;;;;;5037175;28;20267;-76
2022/05/05 10:52:13;;;;;;;15.60;8.87;;;17.10;99.90;;;;;;5037203;28;20175;-77
2022/05/05 10:54:44;;;;;;;20.20;9.77;;;17.20;99.90;;;;;;5037069;28;20175;-76
2022/05/05 10:57:25;;;;;;;15.10;8.30;;;17.20;99.90;;;;;;5037236;28;20168;-77
2022/05/05 11:00:10;;;;;;;20.80;10.23;;;17.30;1.00;;;;;;5054886;28;20175;-76
2022/05/05 11:02:37;;;;;;;16.07;10.20;;;17.50;1.00;;;;;;5055106;28;20172;-76
2022/05/05 11:05:28;;;;;;;14.57;9.00;;;17.50;99.90;;;;;;5036887;28;20320;-76
2022/05/05 11:08:23;;;;;;;18.97;10.67;;;17.60;99.90;;;;;;5055135;28;20636;-77
2022/05/05 11:13:48;;;;;;;17.07;9.73;;;17.90;99.90;;;;;;5055268;28;20171;-76
2022/05/05 11:22:21;;;;;;;15.13;9.50;;;17.80;99.90;;;;;;5054923;28;20186;-76
2022/05/05 11:24:48;;;;;;;15.77;9.43;;;17.80;99.90;;;;;;5036540;28;20171;-76
2022/05/05 11:27:19;;;;;;;16.90;9.63;;;17.90;99.90;;;;;;5054493;28;20172;-77
2022/05/05 11:29:57;;;;;;;14.17;9.13;;;17.80;99.90;;;;;;5036255;28;20246;-76
2022/05/05 11:32:33;;;;;;;12.23;8.53;;;18.00;99.90;;;;;;5054421;28;20213;-76
2022/05/05 11:34:59;;;;;;;16.13;9.70;;;18.20;99.90;;;;;;5036385;28;20171;-76
2022/05/05 11:37:30;;;;;;;21.23;9.90;;;18.30;99.90;;;;;;5036268;28;20175;-76
2022/05/05 11:39:56;;;;;;;17.60;10.00;;;18.40;99.90;;;;;;5054493;28;20171;-76
2022/05/05 11:42:21;;;;;;;14.57;9.37;;;18.30;99.90;;;;;;5054270;28;20591;-76
2022/05/05 11:44:48;;;;;;;16.90;10.60;;;18.30;99.90;;;;;;5054144;28;20168;-77
2022/05/05 11:47:22;;;;;;;17.43;11.10;;;18.20;99.90;;;;;;5036145;28;20176;-76
2022/05/05 11:49:52;;;;;;;20.90;11.00;;;18.20;99.90;;;;;;5053858;28;20635;-76
2022/05/05 11:52:19;;;;;;;21.37;10.53;;;18.20;99.90;;;;;;5036090;28;20168;-76
2022/05/05 11:54:47;;;;;;;14.27;9.27;;;18.30;99.90;;;;;;5035810;28;20175;-76
2022/05/05 11:57:29;;;;;;;16.93;10.13;;;18.30;99.90;;;;;;5035949;28;20642;-76
2022/05/05 12:02:39;;;;;;;19.93;10.43;;;18.40;99.90;;;;;;5053829;28;20644;-77
2022/05/05 12:05:08;;;;;;;17.43;10.50;;;18.50;99.90;;;;;;5053888;28;20266;-76
2022/05/05 12:07:34;;;;;;;15.70;9.20;;;18.60;99.90;;;;;;5053669;28;20222;-77
2022/05/05 12:10:08;;;;;;;18.77;10.67;;;18.80;99.90;;;;;;5053524;28;20203;-77
2022/05/05 12:12:36;;;;;;;16.03;9.73;;;19.00;99.90;;;;;;5053624;28;20622;-77
2022/05/05 12:15:06;;;;;;;18.17;10.70;;;19.00;99.90;;;;;;5053504;28;20559;-76
2022/05/05 12:17:46;;;;;;;16.57;9.67;;;19.20;99.90;;;;;;5053324;28;20218;-77
2022/05/05 12:20:14;;;;;;;21.63;11.20;;;19.20;99.90;;;;;;5053753;28;20160;-77
2022/05/05 12:22:41;;;;;;;13.43;9.00;;;18.90;1.00;;;;;;5053359;28;20228;-77
2022/05/05 12:25:13;;;;;;;16.73;10.37;;;18.90;63.20;;;;;;5053103;28;20587;-76
2022/05/05 12:27:39;;;;;;;17.03;8.93;;;19.00;99.90;;;;;;5035423;28;20202;-77
2022/05/05 12:30:06;;;;;;;13.80;8.20;;;19.10;99.90;;;;;;5053203;28;20188;-77
2022/05/05 12:32:32;;;;;;;14.73;7.87;;;19.20;99.90;;;;;;5053170;28;20523;-76
2022/05/05 12:35:10;;;;;;;13.00;8.17;;;19.20;1.00;;;;;;5053131;28;20178;-76
2022/05/05 12:37:37;;;;;;;16.00;8.57;;;19.00;1.00;;;;;;5035259;28;20174;-76
2022/05/05 12:40:07;;;;;;;14.53;7.93;;;18.80;1.00;;;;;;5053065;28;20203;-77
2022/05/05 12:42:45;;;;;;;14.70;8.70;;;18.60;1.00;;;;;;5052904;28;20306;-77
2022/05/05 12:45:17;;;;;;;10.93;6.50;;;18.70;1.00;;;;;;5052871;28;20211;-77
2022/05/05 12:47:46;;;;;;;11.60;7.63;;;18.70;1.00;;;;;;5053214;28;20167;-75
2022/05/05 12:50:30;;;;;;;11.23;7.27;;;18.80;1.00;;;;;;5035067;28;20206;-75
2022/05/05 13:01:23;;;;;;;8.97;6.00;;;19.40;1.00;;;;;;5053186;28;20167;-76
2022/05/05 13:03:49;;;;;;;10.90;5.60;;;19.50;1.00;;;;;;5053655;28;20481;-75
2022/05/05 13:06:14;;;;;;;10.13;5.50;;;19.70;1.00;;;;;;5034281;28;20202;-74
2022/05/05 13:08:40;;;;;;;8.50;5.37;;;19.70;1.00;;;;;;5052809;28;20175;-75
2022/05/05 13:11:06;;;;;;;9.30;5.43;;;19.60;1.00;;;;;;5052926;28;20206;-76
2022/05/05 13:13:31;;;;;;;8.97;5.73;;;19.60;1.00;;;;;;5052754;28;20171;-75
2022/05/05 13:15:57;;;;;;;8.67;5.87;;;19.70;1.00;;;;;;5034772;28;20196;-75
2022/05/05 13:18:23;;;;;;;9.07;5.43;;;19.70;1.00;;;;;;5034848;28;20254;-75
2022/05/05 13:20:48;;;;;;;11.10;6.03;;;19.70;1.00;;;;;;5052782;28;20172;-75
2022/05/05 13:23:14;;;;;;;8.87;5.17;;;19.80;1.00;;;;;;5052800;28;20636;-76
2022/05/05 13:25:40;;;;;;;9.40;5.13;;;19.80;1.00;;;;;;5052446;28;20195;-76
2022/05/05 13:28:07;;;;;;;13.43;5.60;;;19.80;1.00;;;;;;5052787;28;20175;-76
2022/05/05 13:30:32;;;;;;;9.93;5.47;;;20.10;1.00;;;;;;5053094;28;20286;-76
2022/05/05 13:32:58;;;;;;;8.47;5.67;;;20.20;1.00;;;;;;5053041;28;20258;-76
2022/05/05 13:35:24;;;;;;;10.13;5.57;;;20.30;1.00;;;;;;5036086;28;20219;-76
2022/05/05 13:37:50;;;;;;;11.17;5.00;;;20.30;1.00;;;;;;5052826;28;20172;-75
2022/05/05 13:40:15;;;;;;;7.90;4.77;;;20.40;1.00;;;;;;5053356;28;20179;-76
2022/05/05 13:42:41;;;;;;;9.20;5.77;;;20.50;1.00;;;;;;5053839;28;20183;-76